Time;durP1;ratioP1;P1;durP2;ratioP2;P2;SDS_P1;SDS_P2;PMS_P1;PMS_P2;Temp;Humidity;BMP_temperature;BMP_pressure;BME280_temperature;BME280_humidity;BME280_pressure;Samples;Min_cycle;Max_cycle;Signal;HPM_P1;HPM_P2
2023/05/15 00:01:09;;;;;;;2.30;1.27;;;14.10;99.90;;;;;;1921816;74;21592;-82
2023/05/15 00:04:01;;;;;;;1.67;1.37;;;14.10;99.90;;;;;;1899197;74;21132;-82
2023/05/15 00:06:52;;;;;;;1.47;1.20;;;14.10;99.90;;;;;;1921231;74;21118;-82
2023/05/15 00:09:44;;;;;;;2.65;1.50;;;14.10;99.90;;;;;;1915948;74;21106;-83
2023/05/15 00:12:35;;;;;;;1.55;1.45;;;14.20;99.90;;;;;;1910290;74;21090;-82
2023/05/15 00:15:26;;;;;;;1.45;1.30;;;14.20;99.90;;;;;;1910566;74;21094;-82
2023/05/15 00:18:18;;;;;;;1.82;1.37;;;14.10;99.90;;;;;;1910086;74;21555;-83
2023/05/15 00:21:11;;;;;;;2.55;1.65;;;14.10;99.90;;;;;;1915124;74;21105;-83
2023/05/15 00:24:02;;;;;;;1.45;1.25;;;14.10;99.90;;;;;;1911677;74;21561;-82
2023/05/15 00:26:54;;;;;;;2.05;1.70;;;14.20;99.90;;;;;;1907767;74;21604;-83
2023/05/15 00:29:45;;;;;;;2.37;1.70;;;14.10;99.90;;;;;;1908111;74;21110;-83
2023/05/15 00:32:37;;;;;;;3.25;1.30;;;14.00;99.90;;;;;;1918268;74;21086;-82
2023/05/15 00:35:29;;;;;;;1.60;1.50;;;14.00;99.90;;;;;;1918730;74;21093;-82
2023/05/15 00:38:21;;;;;;;1.67;1.50;;;14.00;99.90;;;;;;1921895;74;21099;-83
2023/05/15 00:41:13;;;;;;;2.67;1.55;;;14.00;99.90;;;;;;1901996;74;21117;-82
2023/05/15 00:44:06;;;;;;;2.08;1.52;;;13.90;99.90;;;;;;1912946;74;21110;-82
2023/05/15 00:46:59;;;;;;;1.77;1.40;;;13.90;99.90;;;;;;1914431;74;21122;-83
2023/05/15 00:49:52;;;;;;;1.75;1.50;;;13.90;99.90;;;;;;1921516;74;21128;-82
2023/05/15 00:52:44;;;;;;;1.77;1.47;;;13.90;99.90;;;;;;1904220;74;21553;-82
2023/05/15 00:55:36;;;;;;;1.85;1.60;;;13.90;99.90;;;;;;1909963;74;21115;-82
2023/05/15 00:58:27;;;;;;;1.92;1.62;;;14.00;99.90;;;;;;1912123;74;21127;-82
2023/05/15 01:01:20;;;;;;;2.50;1.37;;;14.00;99.90;;;;;;1911778;74;21144;-82
2023/05/15 01:04:12;;;;;;;1.98;1.40;;;14.00;99.90;;;;;;1902560;74;21112;-82
2023/05/15 01:07:04;;;;;;;3.62;1.67;;;14.00;99.90;;;;;;1857124;77;21072;-83
2023/05/15 01:09:57;;;;;;;2.30;1.55;;;14.10;99.90;;;;;;1919108;74;21105;-82
2023/05/15 01:12:53;;;;;;;2.22;1.67;;;14.10;99.90;;;;;;1917532;74;21070;-82
2023/05/15 01:15:44;;;;;;;1.82;1.67;;;14.10;99.90;;;;;;1921483;74;21118;-83
2023/05/15 01:18:36;;;;;;;6.28;1.55;;;14.10;99.90;;;;;;1899251;74;21087;-83
2023/05/15 01:21:55;;;;;;;2.35;1.40;;;14.10;99.90;;;;;;1899541;74;21090;-83
2023/05/15 01:25:32;;;;;;;2.92;1.40;;;14.10;99.90;;;;;;1910709;74;21545;-83
2023/05/15 01:28:27;;;;;;;2.33;1.60;;;14.00;99.90;;;;;;1908331;74;21233;-83
2023/05/15 01:34:02;;;;;;;1.60;1.50;;;14.00;99.90;;;;;;1948488;72;22142;-82
2023/05/15 01:36:58;;;;;;;2.17;1.62;;;13.90;99.90;;;;;;1903805;75;21625;-84
2023/05/15 01:39:54;;;;;;;2.98;1.45;;;13.90;99.90;;;;;;1902557;75;21351;-83
2023/05/15 01:42:49;;;;;;;3.55;1.60;;;13.90;99.90;;;;;;1901453;75;21091;-83
2023/05/15 01:45:43;;;;;;;2.12;1.92;;;13.90;99.90;;;;;;1901221;75;21094;-83
2023/05/15 01:48:35;;;;;;;1.95;1.75;;;13.90;99.90;;;;;;1883302;76;21061;-82
2023/05/15 01:51:28;;;;;;;1.62;1.45;;;13.80;99.90;;;;;;1897716;75;21079;-83
2023/05/15 01:54:20;;;;;;;2.55;2.08;;;13.80;99.90;;;;;;1897918;75;21081;-82
2023/05/15 01:57:12;;;;;;;2.08;1.70;;;13.70;99.90;;;;;;1903613;75;21147;-82
2023/05/15 02:00:05;;;;;;;3.30;1.70;;;13.70;99.90;;;;;;1888100;75;21091;-83
2023/05/15 02:02:59;;;;;;;3.15;2.08;;;13.70;99.90;;;;;;1881357;76;21124;-83
2023/05/15 02:05:53;;;;;;;2.92;1.70;;;13.70;99.90;;;;;;1901534;75;21095;-82
2023/05/15 02:08:46;;;;;;;2.12;1.92;;;13.80;99.90;;;;;;1901529;75;21324;-82
2023/05/15 02:11:39;;;;;;;2.00;1.80;;;13.70;99.90;;;;;;1901112;75;21131;-83
2023/05/15 02:14:31;;;;;;;1.98;1.77;;;13.60;99.90;;;;;;1900203;75;21122;-82
2023/05/15 02:17:23;;;;;;;2.00;1.80;;;13.60;99.90;;;;;;1901606;75;21099;-82
2023/05/15 02:20:15;;;;;;;3.12;1.75;;;13.60;99.90;;;;;;1895088;75;21076;-82
2023/05/15 02:23:06;;;;;;;2.10;1.90;;;13.60;99.90;;;;;;1901674;75;21082;-82
2023/05/15 02:26:07;;;;;;;2.62;2.00;;;13.50;99.90;;;;;;1884098;76;21128;-82
2023/05/15 02:29:06;;;;;;;2.87;2.30;;;13.60;99.90;;;;;;1899887;75;21177;-82
2023/05/15 02:32:01;;;;;;;2.40;2.10;;;13.50;99.90;;;;;;1898127;75;21455;-82
2023/05/15 02:34:56;;;;;;;3.52;2.25;;;13.60;99.90;;;;;;1912176;74;21179;-82
2023/05/15 02:37:50;;;;;;;3.55;1.95;;;13.60;99.90;;;;;;1909602;74;21571;-82
2023/05/15 02:40:44;;;;;;;5.10;3.12;;;13.60;99.90;;;;;;1905607;75;21122;-85
2023/05/15 02:43:36;;;;;;;2.40;2.20;;;13.60;99.90;;;;;;1886569;75;21205;-83
2023/05/15 02:46:30;;;;;;;2.55;2.35;;;13.60;99.90;;;;;;1906170;75;21055;-83
2023/05/15 02:49:22;;;;;;;3.02;2.27;;;13.60;99.90;;;;;;1905777;75;21098;-82
2023/05/15 02:52:14;;;;;;;2.33;1.90;;;13.60;99.90;;;;;;1906492;75;21124;-82
2023/05/15 02:55:08;;;;;;;3.58;2.27;;;13.50;99.90;;;;;;1888781;75;21190;-83
2023/05/15 02:58:00;;;;;;;2.83;2.42;;;13.50;99.90;;;;;;1882381;75;21057;-82
2023/05/15 03:00:51;;;;;;;2.60;2.10;;;13.50;99.90;;;;;;1878157;75;21220;-83
2023/05/15 03:03:43;;;;;;;3.45;2.45;;;13.50;99.90;;;;;;1897421;75;21118;-82
2023/05/15 03:06:34;;;;;;;2.30;2.10;;;13.50;99.90;;;;;;1898662;75;21138;-82
2023/05/15 03:09:27;;;;;;;4.33;2.50;;;13.40;99.90;;;;;;1894410;75;21129;-82
2023/05/15 03:12:18;;;;;;;3.15;2.37;;;13.40;99.90;;;;;;1902684;75;21187;-83
2023/05/15 03:15:10;;;;;;;3.12;2.55;;;13.40;99.90;;;;;;1902932;75;21094;-83
2023/05/15 03:18:02;;;;;;;2.95;2.40;;;13.40;99.90;;;;;;1900028;75;21668;-82
2023/05/15 03:20:53;;;;;;;2.25;2.05;;;13.40;99.90;;;;;;1904253;75;21103;-82
2023/05/15 03:23:45;;;;;;;3.35;2.58;;;13.30;99.90;;;;;;1879105;75;21118;-82
2023/05/15 03:26:39;;;;;;;3.10;2.80;;;13.30;99.90;;;;;;1897599;75;21120;-82
2023/05/15 03:29:30;;;;;;;2.85;2.60;;;13.30;99.90;;;;;;1897278;75;21051;-82
2023/05/15 03:32:21;;;;;;;4.05;2.87;;;13.30;99.90;;;;;;1899184;75;21157;-82
2023/05/15 03:35:13;;;;;;;4.55;2.60;;;13.30;99.90;;;;;;1904241;74;21704;-82
2023/05/15 03:38:05;;;;;;;3.00;2.72;;;13.30;99.90;;;;;;1902251;75;21103;-82
2023/05/15 03:40:56;;;;;;;2.83;2.60;;;13.40;99.90;;;;;;1903606;75;21175;-82
2023/05/15 03:43:47;;;;;;;3.27;3.02;;;13.30;99.90;;;;;;1889320;75;21719;-82
2023/05/15 03:46:40;;;;;;;3.12;2.83;;;13.30;99.90;;;;;;1868737;76;21087;-82
2023/05/15 03:49:33;;;;;;;5.22;2.75;;;13.30;99.90;;;;;;1903052;75;21314;-82
2023/05/15 03:52:26;;;;;;;4.53;3.45;;;13.30;99.90;;;;;;1903938;75;21162;-82
2023/05/15 03:55:18;;;;;;;3.33;2.90;;;13.30;99.90;;;;;;1897791;75;21118;-82
2023/05/15 03:58:09;;;;;;;3.42;3.12;;;13.20;99.90;;;;;;1885471;75;21095;-82
2023/05/15 04:01:00;;;;;;;3.27;2.95;;;13.20;99.90;;;;;;1895247;75;21115;-82
2023/05/15 04:03:51;;;;;;;3.55;3.25;;;13.20;99.90;;;;;;1896417;75;21094;-82
2023/05/15 04:06:43;;;;;;;4.00;3.35;;;13.20;99.90;;;;;;1904054;75;21614;-83
2023/05/15 04:09:34;;;;;;;3.40;3.10;;;13.20;99.90;;;;;;1886395;75;21110;-83
2023/05/15 04:12:28;;;;;;;3.87;3.22;;;13.30;99.90;;;;;;1897410;75;21098;-82
2023/05/15 04:15:22;;;;;;;3.58;3.27;;;13.20;99.90;;;;;;1899081;75;21068;-83
2023/05/15 04:18:14;;;;;;;2.50;2.30;;;13.20;99.90;;;;;;1904091;75;21535;-82
2023/05/15 04:21:06;;;;;;;7.03;3.33;;;13.10;99.90;;;;;;1898796;75;21141;-83
2023/05/15 04:23:57;;;;;;;4.47;3.55;;;13.20;99.90;;;;;;1883865;75;21095;-82
2023/05/15 04:26:48;;;;;;;3.50;3.00;;;13.20;99.90;;;;;;1897163;75;21657;-82
2023/05/15 04:29:39;;;;;;;4.00;3.15;;;13.20;99.90;;;;;;1902229;75;21051;-82
2023/05/15 04:32:33;;;;;;;2.83;2.10;;;13.30;99.90;;;;;;1903427;75;21091;-83
2023/05/15 04:35:25;;;;;;;2.98;2.72;;;13.20;99.90;;;;;;1909165;74;21106;-82
2023/05/15 04:38:17;;;;;;;2.98;2.75;;;13.20;99.90;;;;;;1907291;75;21192;-82
2023/05/15 04:41:09;;;;;;;4.83;2.80;;;13.20;99.90;;;;;;1907424;75;21060;-82
2023/05/15 04:44:00;;;;;;;3.60;3.27;;;13.20;99.90;;;;;;1907587;75;21170;-83
2023/05/15 04:46:51;;;;;;;3.30;3.00;;;13.20;99.90;;;;;;1905998;75;21116;-82
2023/05/15 04:49:43;;;;;;;3.72;3.42;;;13.20;99.90;;;;;;1907885;75;21090;-82
2023/05/15 04:52:34;;;;;;;4.12;3.15;;;13.20;99.90;;;;;;1908068;75;21199;-82
2023/05/15 04:55:25;;;;;;;3.55;3.25;;;13.20;99.90;;;;;;1907289;75;21111;-83
2023/05/15 04:58:17;;;;;;;4.12;3.75;;;13.30;99.90;;;;;;1906379;75;21188;-83
2023/05/15 05:01:09;;;;;;;3.58;3.25;;;13.30;99.90;;;;;;1908616;75;21121;-83
2023/05/15 05:04:00;;;;;;;3.90;2.98;;;13.30;99.90;;;;;;1908701;75;21430;-83
2023/05/15 05:06:52;;;;;;;2.98;2.67;;;13.30;99.90;;;;;;1907888;75;21123;-82
2023/05/15 05:09:44;;;;;;;3.40;3.10;;;13.40;99.90;;;;;;1889147;75;21164;-82
2023/05/15 05:12:35;;;;;;;2.98;2.62;;;13.40;99.90;;;;;;1886195;75;21449;-84
2023/05/15 05:15:26;;;;;;;3.15;2.40;;;13.40;99.90;;;;;;1897782;75;21101;-84
2023/05/15 05:18:18;;;;;;;3.67;3.08;;;13.40;99.90;;;;;;1910435;75;22231;-84
2023/05/15 05:21:09;;;;;;;4.53;3.60;;;13.40;99.90;;;;;;1907175;75;21087;-83
2023/05/15 05:24:01;;;;;;;4.90;3.70;;;13.40;99.90;;;;;;1887350;75;21149;-84
2023/05/15 05:26:53;;;;;;;3.92;3.55;;;13.40;99.90;;;;;;1899270;75;21107;-83
2023/05/15 05:29:45;;;;;;;4.37;3.90;;;13.40;99.90;;;;;;1896279;75;21059;-84
2023/05/15 05:32:36;;;;;;;3.62;3.20;;;13.40;99.90;;;;;;1907058;75;21321;-85
2023/05/15 05:35:27;;;;;;;3.72;3.42;;;13.50;99.90;;;;;;1907118;75;21111;-84
2023/05/15 05:38:18;;;;;;;3.90;3.58;;;13.40;99.90;;;;;;1888430;75;21103;-84
2023/05/15 05:41:10;;;;;;;4.72;4.00;;;13.50;99.90;;;;;;1881010;75;21194;-84
2023/05/15 05:44:01;;;;;;;3.70;3.40;;;13.50;99.90;;;;;;1896378;75;21249;-84
2023/05/15 05:46:53;;;;;;;4.08;3.67;;;13.60;99.90;;;;;;1893071;76;21613;-83
2023/05/15 05:49:46;;;;;;;4.03;3.62;;;13.60;99.90;;;;;;1887946;75;21102;-84
2023/05/15 05:52:38;;;;;;;5.17;3.60;;;13.70;99.90;;;;;;1902841;74;21118;-83
2023/05/15 05:55:29;;;;;;;4.28;3.87;;;13.80;99.90;;;;;;1900531;75;21551;-83
2023/05/15 05:58:21;;;;;;;4.37;3.90;;;13.80;99.90;;;;;;1894312;76;21173;-84
2023/05/15 06:01:13;;;;;;;3.87;3.45;;;13.90;99.90;;;;;;1883985;75;21192;-84
2023/05/15 06:04:05;;;;;;;4.03;3.70;;;13.90;99.90;;;;;;1897428;75;21099;-84
2023/05/15 06:06:57;;;;;;;4.70;3.58;;;14.10;99.90;;;;;;1897224;75;21080;-84
2023/05/15 06:09:48;;;;;;;4.37;3.98;;;14.00;99.90;;;;;;1894236;76;21157;-84
2023/05/15 06:12:40;;;;;;;4.65;4.15;;;14.10;99.90;;;;;;1898011;75;21114;-84
2023/05/15 06:15:32;;;;;;;4.50;4.10;;;14.10;99.90;;;;;;1903940;75;21166;-83
2023/05/15 06:18:23;;;;;;;5.33;4.03;;;14.10;99.90;;;;;;1903373;75;21091;-84
2023/05/15 06:21:14;;;;;;;4.53;4.10;;;14.00;99.90;;;;;;1899591;75;21062;-83
2023/05/15 06:24:06;;;;;;;4.28;3.87;;;13.90;99.90;;;;;;1881008;76;21495;-83
2023/05/15 06:26:58;;;;;;;5.22;4.15;;;13.90;99.90;;;;;;1900699;75;21620;-83
2023/05/15 06:29:49;;;;;;;4.87;4.40;;;13.90;99.90;;;;;;1895128;75;21119;-83
2023/05/15 06:32:41;;;;;;;4.83;4.30;;;14.00;99.90;;;;;;1898437;75;21052;-83
2023/05/15 06:35:33;;;;;;;5.12;4.30;;;13.90;99.90;;;;;;1880956;76;21118;-82
2023/05/15 06:38:24;;;;;;;3.87;3.47;;;13.90;99.90;;;;;;1900360;74;21141;-83
2023/05/15 06:41:16;;;;;;;4.37;3.98;;;13.90;99.90;;;;;;1888190;75;21586;-83
2023/05/15 06:44:07;;;;;;;4.60;4.20;;;13.90;99.90;;;;;;1904622;75;21118;-82
2023/05/15 06:46:59;;;;;;;4.40;4.00;;;13.90;99.90;;;;;;1881802;76;21098;-83
2023/05/15 06:49:51;;;;;;;5.08;3.98;;;13.90;99.90;;;;;;1900812;75;21133;-82
2023/05/15 06:52:42;;;;;;;5.00;4.20;;;14.00;99.90;;;;;;1900664;75;21173;-83
2023/05/15 06:55:35;;;;;;;4.72;3.85;;;14.00;99.90;;;;;;1900313;75;21221;-84
2023/05/15 06:58:26;;;;;;;4.70;3.87;;;14.00;99.90;;;;;;1882767;76;21115;-84
2023/05/15 07:01:18;;;;;;;4.72;4.33;;;14.10;99.90;;;;;;1897890;75;21106;-83
2023/05/15 07:04:09;;;;;;;4.75;4.35;;;14.20;99.90;;;;;;1897467;75;21110;-83
2023/05/15 07:07:02;;;;;;;5.58;3.77;;;14.30;99.90;;;;;;1897481;75;21147;-83
2023/05/15 07:09:55;;;;;;;4.75;4.35;;;14.30;99.90;;;;;;1897948;75;21120;-83
2023/05/15 07:12:46;;;;;;;5.62;4.30;;;14.30;99.90;;;;;;1884745;75;21157;-83
2023/05/15 07:15:38;;;;;;;5.25;4.47;;;14.40;99.90;;;;;;1897787;75;21180;-83
2023/05/15 07:18:30;;;;;;;5.62;5.12;;;14.30;99.90;;;;;;1897661;75;21051;-83
2023/05/15 07:21:22;;;;;;;5.75;4.70;;;14.30;99.90;;;;;;1903873;75;22196;-83
2023/05/15 07:24:13;;;;;;;5.58;5.00;;;14.30;99.90;;;;;;1899544;75;21165;-83
2023/05/15 07:27:05;;;;;;;6.22;5.30;;;14.50;99.90;;;;;;1903870;75;21094;-83
2023/05/15 07:29:57;;;;;;;5.72;5.12;;;14.60;99.90;;;;;;1902551;75;21595;-84
2023/05/15 07:32:48;;;;;;;5.92;5.37;;;14.50;99.90;;;;;;1901025;75;21099;-83
2023/05/15 07:35:39;;;;;;;5.58;4.80;;;14.70;99.90;;;;;;1899042;75;21107;-84
2023/05/15 07:38:31;;;;;;;5.78;4.83;;;14.70;99.90;;;;;;1889699;75;21210;-83
2023/05/15 07:41:25;;;;;;;5.40;4.90;;;14.70;99.90;;;;;;1911775;74;21096;-83
2023/05/15 07:44:16;;;;;;;6.72;5.95;;;14.70;99.90;;;;;;1910787;75;21162;-83
2023/05/15 07:47:08;;;;;;;6.67;5.80;;;14.80;99.90;;;;;;1906475;75;21203;-83
2023/05/15 07:50:06;;;;;;;6.35;5.75;;;14.80;99.90;;;;;;1906371;75;21172;-84
2023/05/15 07:52:59;;;;;;;6.97;5.92;;;14.80;99.90;;;;;;1907310;75;21168;-83
2023/05/15 07:55:51;;;;;;;6.58;5.83;;;14.60;99.90;;;;;;1907463;75;21177;-84
2023/05/15 07:58:42;;;;;;;7.55;6.00;;;14.50;99.90;;;;;;1908357;75;21087;-84
2023/05/15 08:01:36;;;;;;;6.42;5.58;;;14.50;99.90;;;;;;1910560;75;21148;-83
2023/05/15 08:04:28;;;;;;;8.40;6.72;;;14.60;99.90;;;;;;1910901;75;21115;-83
2023/05/15 08:07:20;;;;;;;7.80;6.28;;;14.50;99.90;;;;;;1904002;75;21064;-83
2023/05/15 08:10:12;;;;;;;8.20;6.42;;;14.40;99.90;;;;;;1905560;75;21082;-83
2023/05/15 08:13:04;;;;;;;6.62;6.03;;;14.40;99.90;;;;;;1910251;75;21134;-83
2023/05/15 08:15:55;;;;;;;7.35;6.65;;;14.50;99.90;;;;;;1887379;75;21047;-83
2023/05/15 08:18:46;;;;;;;9.78;7.17;;;14.60;99.90;;;;;;1905383;75;21099;-83
2023/05/15 08:21:39;;;;;;;7.17;6.47;;;14.60;99.90;;;;;;1910387;75;21151;-82
2023/05/15 08:24:32;;;;;;;10.53;6.20;;;14.50;99.90;;;;;;1907028;75;21547;-82
2023/05/15 08:27:23;;;;;;;7.97;6.85;;;14.50;99.90;;;;;;1889083;75;21158;-83
2023/05/15 08:30:16;;;;;;;7.85;5.95;;;14.50;99.90;;;;;;1906669;75;21032;-83
2023/05/15 08:33:07;;;;;;;8.23;6.55;;;14.60;99.90;;;;;;1909194;75;21163;-82
2023/05/15 08:35:59;;;;;;;8.35;6.42;;;14.50;99.90;;;;;;1908451;75;21248;-83
2023/05/15 08:38:51;;;;;;;7.50;5.90;;;14.50;99.90;;;;;;1906222;74;21185;-83
2023/05/15 08:41:46;;;;;;;8.05;6.78;;;14.60;99.90;;;;;;1908372;75;21206;-82
2023/05/15 08:44:39;;;;;;;7.60;6.75;;;14.60;99.90;;;;;;1906245;75;21099;-83
2023/05/15 08:47:33;;;;;;;15.98;7.05;;;14.70;99.90;;;;;;1903923;75;21628;-83
2023/05/15 08:50:26;;;;;;;7.85;6.47;;;14.80;99.90;;;;;;1902355;75;21103;-82
2023/05/15 08:53:18;;;;;;;6.83;5.92;;;14.80;99.90;;;;;;1888331;75;21103;-83
2023/05/15 08:56:10;;;;;;;7.00;5.95;;;14.80;99.90;;;;;;1907291;75;21051;-83
2023/05/15 08:59:02;;;;;;;7.78;5.58;;;14.80;99.90;;;;;;1907768;75;21574;-83
2023/05/15 09:01:53;;;;;;;7.28;6.33;;;14.80;99.90;;;;;;1887200;75;21082;-83
2023/05/15 09:04:45;;;;;;;6.40;5.80;;;14.80;99.90;;;;;;1884444;75;21564;-84
2023/05/15 09:07:38;;;;;;;5.80;4.47;;;15.00;99.90;;;;;;1908377;74;21158;-83
2023/05/15 09:10:30;;;;;;;7.08;6.00;;;15.10;99.90;;;;;;1906888;75;21208;-84
2023/05/15 09:13:24;;;;;;;6.42;5.65;;;15.20;99.90;;;;;;1905820;74;21082;-83
2023/05/15 09:16:16;;;;;;;10.25;5.58;;;15.30;99.90;;;;;;1891430;75;21105;-82
2023/05/15 09:19:07;;;;;;;8.08;6.12;;;15.20;99.90;;;;;;1885816;75;21566;-83
2023/05/15 09:22:04;;;;;;;9.35;6.33;;;15.30;99.90;;;;;;1907261;75;21183;-83
2023/05/15 09:24:56;;;;;;;10.25;5.90;;;15.30;99.90;;;;;;1907194;75;21079;-83
2023/05/15 09:27:48;;;;;;;7.15;6.45;;;15.30;99.90;;;;;;1902922;75;21602;-83
2023/05/15 09:33:21;;;;;;;6.12;5.53;;;15.30;99.90;;;;;;1946357;72;22263;-82
2023/05/15 09:36:14;;;;;;;7.95;5.62;;;15.50;99.90;;;;;;1906484;75;21135;-83
2023/05/15 09:39:06;;;;;;;5.62;5.12;;;15.50;99.90;;;;;;1903814;75;21518;-82
2023/05/15 09:42:10;;;;;;;6.37;5.22;;;15.50;99.90;;;;;;1902443;75;21162;-82
2023/05/15 09:45:01;;;;;;;6.35;5.75;;;15.50;99.90;;;;;;1884276;76;21071;-83
2023/05/15 09:47:53;;;;;;;7.53;5.62;;;15.50;99.90;;;;;;1906435;75;21106;-84
2023/05/15 09:50:44;;;;;;;6.45;5.67;;;15.60;99.90;;;;;;1907471;75;21172;-83
2023/05/15 09:53:38;;;;;;;6.17;4.45;;;15.70;99.90;;;;;;1899300;75;21062;-83
2023/05/15 09:56:30;;;;;;;6.62;4.92;;;15.70;99.90;;;;;;1884097;76;21093;-83
2023/05/15 09:59:22;;;;;;;6.20;5.33;;;15.80;99.90;;;;;;1914363;75;21461;-83
2023/05/15 10:02:26;;;;;;;7.30;5.33;;;16.00;99.90;;;;;;1914432;75;21149;-84
2023/05/15 10:05:19;;;;;;;5.17;4.67;;;16.10;99.90;;;;;;1883929;75;21549;-83
2023/05/15 10:08:13;;;;;;;4.45;3.80;;;16.30;99.90;;;;;;1884483;76;21180;-83
2023/05/15 10:11:06;;;;;;;5.10;4.60;;;16.60;99.90;;;;;;1896577;75;21114;-83
2023/05/15 10:13:58;;;;;;;5.97;5.30;;;16.50;99.90;;;;;;1894824;75;21122;-83
2023/05/15 10:16:50;;;;;;;5.67;4.67;;;16.50;99.90;;;;;;1893103;75;21103;-85
2023/05/15 10:22:29;;;;;;;5.70;4.37;;;16.70;99.90;;;;;;1961635;72;22178;-83
2023/05/15 10:25:23;;;;;;;5.15;4.40;;;16.90;99.90;;;;;;1924728;73;21091;-82
2023/05/15 10:28:17;;;;;;;4.58;4.12;;;17.00;99.90;;;;;;1925080;73;21071;-83
2023/05/15 10:31:09;;;;;;;4.95;4.45;;;17.00;99.90;;;;;;1917097;75;21143;-82
2023/05/15 10:34:02;;;;;;;5.22;3.90;;;16.90;99.90;;;;;;1917052;75;21055;-83
2023/05/15 10:36:54;;;;;;;4.60;4.20;;;16.90;99.90;;;;;;1917019;75;21822;-84
2023/05/15 10:39:47;;;;;;;5.53;4.17;;;16.90;99.90;;;;;;1921606;73;21208;-84
2023/05/15 10:45:21;;;;;;;4.37;3.98;;;17.00;99.90;;;;;;1942659;72;22206;-83
2023/05/15 10:48:14;;;;;;;4.55;4.00;;;16.90;99.90;;;;;;1893107;75;21146;-83
2023/05/15 10:51:06;;;;;;;4.92;4.15;;;16.80;99.90;;;;;;1894658;75;21114;-83
2023/05/15 10:54:02;;;;;;;3.37;3.02;;;16.80;99.90;;;;;;1895994;75;21362;-83
2023/05/15 10:56:56;;;;;;;4.12;2.95;;;16.80;99.90;;;;;;1900419;75;21261;-83
2023/05/15 10:59:49;;;;;;;4.15;3.37;;;16.80;99.90;;;;;;1895976;75;21148;-83
2023/05/15 11:02:41;;;;;;;3.67;3.35;;;16.80;99.90;;;;;;1907848;75;21514;-83
2023/05/15 11:05:36;;;;;;;5.00;3.10;;;16.70;99.90;;;;;;1906200;75;21095;-83
2023/05/15 11:08:27;;;;;;;4.12;3.37;;;16.60;99.90;;;;;;1905466;75;21101;-83
2023/05/15 11:14:38;;;;;;;5.17;4.00;;;16.60;99.90;;;;;;1948051;72;22224;-82
2023/05/15 11:17:32;;;;;;;2.87;2.35;;;16.60;99.90;;;;;;1885083;75;21091;-83
2023/05/15 11:20:33;;;;;;;4.20;3.12;;;16.70;99.90;;;;;;1876022;75;21088;-83
2023/05/15 11:23:26;;;;;;;3.83;3.20;;;16.80;99.90;;;;;;1877014;75;21064;-82
2023/05/15 11:26:19;;;;;;;4.00;3.30;;;16.80;99.90;;;;;;1904234;75;21111;-83
2023/05/15 11:29:20;;;;;;;5.15;3.85;;;17.00;99.90;;;;;;1889555;75;21176;-82
2023/05/15 11:32:34;;;;;;;5.33;3.25;;;17.10;99.90;;;;;;1886534;75;21081;-84
2023/05/15 11:35:28;;;;;;;4.67;4.20;;;17.20;99.90;;;;;;1885936;75;21115;-83
2023/05/15 11:38:23;;;;;;;4.33;3.92;;;17.30;99.90;;;;;;1895793;75;21577;-83
2023/05/15 11:41:28;;;;;;;5.25;4.08;;;17.30;99.90;;;;;;1894063;75;21562;-83
2023/05/15 11:44:22;;;;;;;4.62;3.98;;;17.30;99.90;;;;;;1895702;75;21180;-84
2023/05/15 11:47:15;;;;;;;4.90;3.60;;;17.30;99.90;;;;;;1885445;75;21246;-84
2023/05/15 11:50:10;;;;;;;4.33;3.92;;;17.40;99.90;;;;;;1872509;76;21055;-84
2023/05/15 11:55:45;;;;;;;6.10;4.20;;;18.00;99.90;;;;;;1952841;72;22605;-83
2023/05/15 11:58:40;;;;;;;4.58;3.95;;;18.30;99.90;;;;;;1923240;74;21085;-85
2023/05/15 12:01:41;;;;;;;3.72;3.35;;;18.40;99.90;;;;;;1868620;76;21128;-85
2023/05/15 12:04:34;;;;;;;6.25;3.72;;;18.60;99.90;;;;;;1878325;76;21126;-84
2023/05/15 12:07:26;;;;;;;4.35;3.62;;;18.70;99.90;;;;;;1906351;75;21110;-84
2023/05/15 12:10:17;;;;;;;5.33;4.08;;;18.70;99.90;;;;;;1906001;75;21087;-84
2023/05/15 12:13:11;;;;;;;5.40;4.20;;;18.60;99.90;;;;;;1903821;75;21107;-83
2023/05/15 12:16:03;;;;;;;5.37;4.08;;;18.50;99.90;;;;;;1898392;75;21184;-84
2023/05/15 12:18:57;;;;;;;4.50;3.92;;;18.60;99.90;;;;;;1907887;75;21151;-83
2023/05/15 12:21:49;;;;;;;5.17;4.05;;;18.90;99.90;;;;;;1905923;75;21505;-84
2023/05/15 12:24:42;;;;;;;4.92;4.47;;;18.90;99.90;;;;;;1883993;76;21137;-84
2023/05/15 12:27:34;;;;;;;4.80;4.30;;;18.90;99.90;;;;;;1900650;75;21110;-83
2023/05/15 12:30:25;;;;;;;6.00;3.95;;;18.90;99.90;;;;;;1895872;75;21543;-84
2023/05/15 12:33:17;;;;;;;4.00;3.60;;;18.90;99.90;;;;;;1894651;75;21220;-84
2023/05/15 12:36:09;;;;;;;4.40;4.00;;;18.90;99.90;;;;;;1916112;75;21130;-83
2023/05/15 12:39:06;;;;;;;5.55;4.58;;;18.60;99.90;;;;;;1901380;75;21142;-84
2023/05/15 12:41:59;;;;;;;7.00;4.33;;;18.50;99.90;;;;;;1903446;75;21109;-84
2023/05/15 12:44:52;;;;;;;5.50;4.45;;;18.20;99.90;;;;;;1906014;75;21559;-84
2023/05/15 12:47:45;;;;;;;7.05;4.95;;;18.00;99.90;;;;;;1906315;75;21143;-84
2023/05/15 12:50:37;;;;;;;7.87;4.28;;;17.50;99.90;;;;;;1884197;76;21164;-83
2023/05/15 12:53:32;;;;;;;5.40;4.85;;;17.40;99.90;;;;;;1901055;75;21135;-83
2023/05/15 12:56:25;;;;;;;5.22;4.62;;;17.10;99.90;;;;;;1924762;74;21180;-83
2023/05/15 12:59:25;;;;;;;7.08;4.42;;;17.00;99.90;;;;;;1904045;74;21078;-83
2023/05/15 13:02:18;;;;;;;4.12;3.65;;;17.00;99.90;;;;;;1923304;74;21055;-83
2023/05/15 13:05:11;;;;;;;5.40;4.90;;;16.80;99.90;;;;;;1914475;74;21063;-83
2023/05/15 13:08:04;;;;;;;5.78;5.28;;;16.60;99.90;;;;;;1910251;74;21097;-83
2023/05/15 13:11:01;;;;;;;7.15;5.25;;;16.70;99.90;;;;;;1914875;74;21132;-83
2023/05/15 13:13:54;;;;;;;4.95;4.45;;;16.70;99.90;;;;;;1915192;74;21150;-83
2023/05/15 13:16:48;;;;;;;4.45;3.45;;;16.80;99.90;;;;;;1892774;74;21056;-83
2023/05/15 13:19:39;;;;;;;4.70;4.20;;;16.90;99.90;;;;;;1912308;74;21180;-83
2023/05/15 13:22:30;;;;;;;5.42;3.98;;;17.20;99.90;;;;;;1925903;74;21098;-83
2023/05/15 13:25:22;;;;;;;3.15;2.83;;;17.60;99.90;;;;;;1895044;74;21159;-83
2023/05/15 13:28:14;;;;;;;4.15;3.20;;;18.00;99.90;;;;;;1893138;74;21380;-83
2023/05/15 13:31:06;;;;;;;8.40;5.05;;;18.00;99.90;;;;;;1892707;74;21072;-83
2023/05/15 13:33:57;;;;;;;6.25;5.62;;;18.10;99.90;;;;;;1907968;74;21594;-85
2023/05/15 13:36:56;;;;;;;5.62;5.10;;;18.00;99.90;;;;;;1893219;76;21061;-84
2023/05/15 13:39:47;;;;;;;6.08;4.60;;;18.10;99.90;;;;;;1915185;74;21106;-84
2023/05/15 13:42:40;;;;;;;6.45;5.50;;;17.90;99.90;;;;;;1915072;74;21197;-84
2023/05/15 13:45:31;;;;;;;6.25;5.62;;;17.90;99.90;;;;;;1911402;74;21042;-84
2023/05/15 13:48:23;;;;;;;4.22;3.40;;;17.80;99.90;;;;;;1913312;74;21106;-83
2023/05/15 13:51:16;;;;;;;4.87;4.05;;;17.70;99.90;;;;;;1922441;74;21185;-83
2023/05/15 13:54:07;;;;;;;8.03;7.22;;;17.50;99.90;;;;;;1903694;74;21101;-84
2023/05/15 13:57:00;;;;;;;10.78;6.80;;;17.20;99.90;;;;;;1907203;74;21129;-83
2023/05/15 13:59:53;;;;;;;7.50;6.67;;;17.00;99.90;;;;;;1907092;74;21078;-83
2023/05/15 14:02:47;;;;;;;5.70;5.17;;;16.80;99.90;;;;;;1904062;74;21098;-84
2023/05/15 14:05:39;;;;;;;6.20;5.25;;;16.60;99.90;;;;;;1898702;74;21102;-84
2023/05/15 14:08:34;;;;;;;6.75;5.85;;;16.30;99.90;;;;;;1915196;74;21059;-84
2023/05/15 14:11:32;;;;;;;7.87;6.83;;;16.30;99.90;;;;;;1911903;74;21086;-83
2023/05/15 14:14:28;;;;;;;5.75;5.20;;;16.20;99.90;;;;;;1907957;74;21220;-83
2023/05/15 14:17:27;;;;;;;5.85;5.25;;;16.30;99.90;;;;;;1904132;74;21059;-84
2023/05/15 14:20:20;;;;;;;8.30;6.40;;;16.50;99.90;;;;;;1896511;74;21119;-84
2023/05/15 14:23:13;;;;;;;6.72;6.12;;;16.70;99.90;;;;;;1914961;74;21206;-83
2023/05/15 14:26:07;;;;;;;8.08;6.85;;;17.00;99.90;;;;;;1892905;76;21586;-83
2023/05/15 14:29:03;;;;;;;7.50;6.55;;;17.20;99.90;;;;;;1908346;74;21094;-84
2023/05/15 14:31:59;;;;;;;7.50;6.72;;;17.30;99.90;;;;;;1893305;74;21102;-84
2023/05/15 14:34:58;;;;;;;7.72;5.95;;;17.40;99.90;;;;;;1915408;74;21082;-83
2023/05/15 14:37:53;;;;;;;6.53;5.50;;;17.50;99.90;;;;;;1914657;74;21113;-83
2023/05/15 14:40:51;;;;;;;5.83;5.22;;;17.50;99.90;;;;;;1914151;74;21094;-84
2023/05/15 14:43:43;;;;;;;6.50;5.80;;;17.50;99.90;;;;;;1909544;74;21130;-83
2023/05/15 14:46:37;;;;;;;6.10;4.37;;;17.60;99.90;;;;;;1903987;74;21097;-83
2023/05/15 14:49:30;;;;;;;5.75;5.17;;;17.80;99.90;;;;;;1903984;74;21152;-84
2023/05/15 14:52:21;;;;;;;6.80;5.92;;;18.00;99.90;;;;;;1903821;74;21062;-83
2023/05/15 14:55:13;;;;;;;5.97;5.37;;;18.60;99.90;;;;;;1907718;74;21168;-83
2023/05/15 14:58:21;;;;;;;7.97;5.72;;;19.20;99.90;;;;;;1892997;76;21585;-84
2023/05/15 15:01:14;;;;;;;8.35;5.90;;;19.90;99.90;;;;;;1893796;74;21130;-84
2023/05/15 15:04:07;;;;;;;5.35;4.67;;;19.70;99.90;;;;;;1915126;74;21140;-84
2023/05/15 15:07:02;;;;;;;5.67;5.17;;;19.30;99.90;;;;;;1914941;74;21217;-84
2023/05/15 15:09:56;;;;;;;6.00;5.40;;;19.10;99.90;;;;;;1911750;74;21163;-84
2023/05/15 15:12:50;;;;;;;6.87;5.30;;;20.00;99.90;;;;;;1906832;74;21121;-84
2023/05/15 15:15:43;;;;;;;7.42;5.70;;;20.80;99.90;;;;;;1894843;74;21350;-84